Time;durP1;ratioP1;P1;durP2;ratioP2;P2;SDS_P1;SDS_P2;PMS_P1;PMS_P2;Temp;Humidity;BMP_temperature;BMP_pressure;BME280_temperature;BME280_humidity;BME280_pressure;Samples;Min_cycle;Max_cycle;Signal;HPM_P1;HPM_P2
2022/09/21 00:00:41;;;;;;;11.13;7.20;;;14.50;95.10;;;;;;5018970;28;20464;-75
2022/09/21 00:03:07;;;;;;;10.98;7.60;;;14.50;94.60;;;;;;5018909;28;20033;-75
2022/09/21 00:05:33;;;;;;;13.65;7.40;;;14.50;94.60;;;;;;5019250;28;20029;-80
2022/09/21 00:08:01;;;;;;;11.10;6.75;;;14.50;94.60;;;;;;5016673;28;20026;-81
2022/09/21 00:10:27;;;;;;;9.48;7.18;;;14.50;94.70;;;;;;5014400;28;20021;-75
2022/09/21 00:12:53;;;;;;;10.57;6.80;;;14.50;94.80;;;;;;5015811;28;20049;-82
2022/09/21 00:15:19;;;;;;;9.82;6.80;;;14.40;94.80;;;;;;5015066;28;20019;-81
2022/09/21 00:17:48;;;;;;;7.95;6.45;;;14.40;94.80;;;;;;5015942;28;20057;-78
2022/09/21 00:20:14;;;;;;;11.35;7.13;;;14.40;94.80;;;;;;5015953;28;20053;-77
2022/09/21 00:22:40;;;;;;;8.43;7.00;;;14.40;94.70;;;;;;5015811;28;20048;-75
2022/09/21 00:25:08;;;;;;;9.80;6.65;;;14.30;94.60;;;;;;5015376;28;20515;-75
2022/09/21 00:27:33;;;;;;;9.40;6.43;;;14.30;94.70;;;;;;5015717;28;20026;-74
2022/09/21 00:30:02;;;;;;;11.80;6.72;;;14.30;94.70;;;;;;5015220;28;20026;-74
2022/09/21 00:32:30;;;;;;;8.10;6.68;;;14.30;94.80;;;;;;5015485;28;20411;-74
2022/09/21 00:34:59;;;;;;;11.93;7.22;;;14.30;94.60;;;;;;5014136;28;20036;-74
2022/09/21 00:37:26;;;;;;;10.60;6.93;;;14.30;94.70;;;;;;5015607;28;20487;-75
2022/09/21 00:39:51;;;;;;;9.95;7.60;;;14.30;94.60;;;;;;5015097;28;20030;-76
2022/09/21 00:42:21;;;;;;;14.25;6.85;;;14.30;94.70;;;;;;5014048;28;20030;-78
2022/09/21 00:44:47;;;;;;;10.88;7.45;;;14.20;94.70;;;;;;5015234;28;20026;-75
2022/09/21 00:47:16;;;;;;;10.05;6.88;;;14.30;94.90;;;;;;5014074;28;20188;-74
2022/09/21 00:49:48;;;;;;;8.73;6.72;;;14.20;94.80;;;;;;5015782;28;20018;-81
2022/09/21 00:52:15;;;;;;;;;;;14.20;94.60;;;;;;5015223;28;20033;-75
2022/09/21 00:55:21;;;;;;;9.02;7.13;;;14.30;94.60;;;;;;5015524;28;19905;-75
2022/09/21 00:57:50;;;;;;;11.48;6.90;;;14.20;94.90;;;;;;5014573;28;20103;-75
2022/09/21 01:00:15;;;;;;;8.82;6.57;;;14.20;94.80;;;;;;5014943;28;20048;-75
2022/09/21 01:02:41;;;;;;;10.35;6.65;;;14.10;94.80;;;;;;5014968;28;20463;-76
2022/09/21 01:05:09;;;;;;;10.05;7.05;;;14.10;94.90;;;;;;5021504;28;20540;-75
2022/09/21 01:07:41;;;;;;;10.13;6.00;;;14.10;94.90;;;;;;5022857;28;20025;-77
2022/09/21 01:10:09;;;;;;;;;;;14.10;94.80;;;;;;5014000;28;20022;-74
2022/09/21 01:12:37;;;;;;;12.30;6.05;;;14.10;94.80;;;;;;5012729;28;19913;-74
2022/09/21 01:15:26;;;;;;;8.73;5.65;;;14.00;94.80;;;;;;5014582;28;20104;-74
2022/09/21 01:18:03;;;;;;;8.65;6.28;;;14.00;94.80;;;;;;5013132;28;20487;-76
2022/09/21 01:20:35;;;;;;;7.43;6.00;;;14.00;94.80;;;;;;5013762;28;20022;-76
2022/09/21 01:23:30;;;;;;;9.05;6.65;;;14.00;94.80;;;;;;5014188;28;20031;-76
2022/09/21 01:26:21;;;;;;;10.00;6.00;;;13.90;94.70;;;;;;5013196;28;20108;-74
2022/09/21 01:29:15;;;;;;;7.50;5.90;;;13.90;94.90;;;;;;5014624;28;20025;-77
2022/09/21 01:32:04;;;;;;;8.18;5.95;;;13.90;95.00;;;;;;5014445;28;20030;-75
2022/09/21 01:34:33;;;;;;;7.88;5.68;;;13.90;95.00;;;;;;5014506;28;20054;-74
2022/09/21 01:37:05;;;;;;;12.35;5.68;;;13.90;95.00;;;;;;5013833;28;20162;-76
2022/09/21 01:39:33;;;;;;;7.63;6.03;;;13.90;94.90;;;;;;5014425;28;20033;-76
2022/09/21 01:42:02;;;;;;;9.15;5.82;;;13.80;94.80;;;;;;5013895;28;20808;-75
2022/09/21 01:44:32;;;;;;;7.88;5.60;;;13.80;94.90;;;;;;5014249;28;20156;-75
2022/09/21 01:47:00;;;;;;;10.10;5.32;;;13.80;95.10;;;;;;5013911;28;20056;-82
2022/09/21 01:49:33;;;;;;;10.45;5.82;;;13.80;95.10;;;;;;5014452;28;20022;-82
2022/09/21 01:52:00;;;;;;;;;;;13.80;95.10;;;;;;5012413;28;20053;-81
2022/09/21 01:54:52;;;;;;;7.18;5.68;;;13.80;94.90;;;;;;5014168;28;20435;-82
2022/09/21 01:57:29;;;;;;;8.32;5.20;;;13.80;95.00;;;;;;5013956;28;20032;-82
2022/09/21 01:59:57;;;;;;;13.38;5.78;;;13.80;95.10;;;;;;5013969;28;20056;-81
2022/09/21 02:02:26;;;;;;;11.90;5.65;;;13.70;95.00;;;;;;5013790;28;20092;-82
2022/09/21 02:04:52;;;;;;;7.57;5.30;;;13.70;95.00;;;;;;5013557;28;20083;-82
2022/09/21 02:07:18;;;;;;;9.82;6.50;;;13.70;95.10;;;;;;5013668;28;20097;-82
2022/09/21 02:09:46;;;;;;;9.45;5.55;;;13.80;95.20;;;;;;5014175;28;20022;-82
2022/09/21 02:12:12;;;;;;;9.52;6.70;;;13.70;95.20;;;;;;5013763;28;20502;-82
2022/09/21 02:14:38;;;;;;;7.95;5.65;;;13.70;95.10;;;;;;5014335;28;20030;-74
2022/09/21 02:17:40;;;;;;;6.70;6.10;;;13.70;95.10;;;;;;5013602;28;20029;-76
2022/09/21 02:20:17;;;;;;;8.05;5.93;;;13.80;95.20;;;;;;5013277;28;20036;-75
2022/09/21 02:23:15;;;;;;;9.82;6.00;;;13.70;95.20;;;;;;5013507;28;20159;-75
2022/09/21 02:25:48;;;;;;;11.20;6.10;;;13.70;95.30;;;;;;5013767;28;20025;-75
2022/09/21 02:28:25;;;;;;;9.23;5.78;;;13.60;95.20;;;;;;5013855;28;20022;-76
2022/09/21 02:31:06;;;;;;;8.73;5.88;;;13.60;95.30;;;;;;5013092;28;20033;-76
2022/09/21 02:33:41;;;;;;;8.73;6.30;;;13.60;95.20;;;;;;5012832;28;20038;-74
2022/09/21 02:36:12;;;;;;;8.82;5.93;;;13.60;95.30;;;;;;5013150;28;20088;-76
2022/09/21 02:38:48;;;;;;;10.68;5.93;;;13.60;95.30;;;;;;5013332;28;20073;-75
2022/09/21 02:41:28;;;;;;;11.70;6.18;;;13.60;95.30;;;;;;5013175;28;20101;-75
2022/09/21 02:44:32;;;;;;;8.50;5.78;;;13.50;95.40;;;;;;5021487;28;20021;-74
2022/09/21 02:47:08;;;;;;;11.68;6.25;;;13.50;95.40;;;;;;5030724;28;20144;-76
2022/09/21 02:49:41;;;;;;;7.60;5.78;;;13.50;95.30;;;;;;5029982;28;20022;-77
2022/09/21 02:52:14;;;;;;;8.85;6.55;;;13.50;95.30;;;;;;5032620;28;20094;-77
2022/09/21 02:54:43;;;;;;;9.80;5.82;;;13.40;95.40;;;;;;5032738;28;20482;-80
2022/09/21 02:57:11;;;;;;;9.80;5.60;;;13.50;95.50;;;;;;5033340;28;20530;-78
2022/09/21 02:59:38;;;;;;;10.50;5.88;;;13.40;95.50;;;;;;5031584;28;20022;-82
2022/09/21 03:02:05;;;;;;;8.18;5.80;;;13.40;95.50;;;;;;5032672;28;20029;-81
2022/09/21 03:04:31;;;;;;;7.63;5.68;;;13.40;95.50;;;;;;5032500;28;20024;-82
2022/09/21 03:06:57;;;;;;;9.75;5.38;;;13.40;95.60;;;;;;5032744;28;20022;-82
2022/09/21 03:09:23;;;;;;;6.50;5.53;;;13.40;95.70;;;;;;5032809;28;20036;-82
2022/09/21 03:11:49;;;;;;;6.10;5.07;;;13.40;95.60;;;;;;5031394;28;20025;-81
2022/09/21 03:14:16;;;;;;;7.45;5.28;;;13.50;95.80;;;;;;5048124;28;20108;-82
2022/09/21 03:16:41;;;;;;;6.68;5.63;;;13.40;95.80;;;;;;5032556;28;20504;-82
2022/09/21 03:19:07;;;;;;;6.53;5.30;;;13.40;95.80;;;;;;5032299;28;20108;-81
2022/09/21 03:21:33;;;;;;;8.20;5.43;;;13.50;95.90;;;;;;5032797;28;20128;-82
2022/09/21 03:23:59;;;;;;;7.63;5.30;;;13.40;96.00;;;;;;5024430;28;20470;-82
2022/09/21 03:26:24;;;;;;;8.52;5.25;;;13.40;96.00;;;;;;5017787;28;20026;-81
2022/09/21 03:28:52;;;;;;;7.82;5.28;;;13.40;96.00;;;;;;5018006;28;20034;-76
2022/09/21 03:31:17;;;;;;;7.85;5.38;;;13.40;96.00;;;;;;5022661;28;20025;-78
2022/09/21 03:33:43;;;;;;;9.05;5.20;;;13.30;96.10;;;;;;5012144;28;20075;-78
2022/09/21 03:36:09;;;;;;;9.10;5.05;;;13.30;96.20;;;;;;5011209;28;20412;-75
2022/09/21 03:38:35;;;;;;;9.93;5.70;;;13.40;96.50;;;;;;5030439;28;20023;-76
2022/09/21 03:41:00;;;;;;;7.63;5.30;;;13.40;96.20;;;;;;5029390;28;20022;-77
2022/09/21 03:43:26;;;;;;;8.88;5.20;;;13.40;96.20;;;;;;5013785;28;20079;-75
2022/09/21 03:45:52;;;;;;;6.40;5.30;;;13.40;96.30;;;;;;5015108;28;20121;-81
2022/09/21 03:48:18;;;;;;;8.38;6.30;;;13.40;96.20;;;;;;5023125;28;20021;-79
2022/09/21 03:50:43;;;;;;;6.43;5.28;;;13.40;96.10;;;;;;5021090;28;20048;-81
2022/09/21 03:53:09;;;;;;;7.95;5.55;;;13.40;96.30;;;;;;5026001;28;20057;-82
2022/09/21 03:55:35;;;;;;;6.28;5.18;;;13.30;96.20;;;;;;5020013;28;20026;-83
2022/09/21 03:58:02;;;;;;;7.35;4.93;;;13.40;96.30;;;;;;5017810;28;20506;-82
2022/09/21 04:00:28;;;;;;;8.95;5.57;;;13.30;96.20;;;;;;5020752;28;20036;-83
2022/09/21 04:02:54;;;;;;;7.65;5.20;;;13.30;96.20;;;;;;5026622;28;20026;-75
2022/09/21 04:05:20;;;;;;;9.45;5.18;;;13.30;96.20;;;;;;5025513;28;20056;-78
2022/09/21 04:07:46;;;;;;;7.05;5.00;;;13.30;96.40;;;;;;5019777;28;20100;-77
2022/09/21 04:10:14;;;;;;;9.82;5.30;;;13.30;96.40;;;;;;5025369;28;20109;-76
2022/09/21 04:12:42;;;;;;;8.07;5.10;;;13.30;96.40;;;;;;5035591;28;20500;-75
2022/09/21 04:15:11;;;;;;;7.63;5.40;;;13.30;96.50;;;;;;5017337;28;20096;-77
2022/09/21 04:17:37;;;;;;;9.05;5.95;;;13.40;96.50;;;;;;5015609;28;20037;-82
2022/09/21 04:20:03;;;;;;;7.95;5.68;;;13.40;96.50;;;;;;5028240;28;20018;-82
2022/09/21 04:22:30;;;;;;;7.75;5.38;;;13.30;96.50;;;;;;5013836;28;20037;-83
2022/09/21 04:24:56;;;;;;;7.93;5.50;;;13.30;96.60;;;;;;5014127;28;20022;-83
2022/09/21 04:27:21;;;;;;;7.32;5.50;;;13.30;96.80;;;;;;5014656;28;20101;-80
2022/09/21 04:29:47;;;;;;;8.52;5.93;;;13.30;96.70;;;;;;5034734;28;20021;-80
2022/09/21 04:32:13;;;;;;;9.45;5.40;;;13.30;96.70;;;;;;5034900;28;20565;-82
2022/09/21 04:34:39;;;;;;;6.97;5.65;;;13.30;96.60;;;;;;5035241;28;20025;-81
2022/09/21 04:37:10;;;;;;;8.45;5.75;;;13.30;96.70;;;;;;5034060;28;20489;-82
2022/09/21 04:39:36;;;;;;;8.73;5.72;;;13.30;96.80;;;;;;5036117;28;20025;-83
2022/09/21 04:42:03;;;;;;;9.20;5.53;;;13.30;96.90;;;;;;5036333;28;20026;-79
2022/09/21 04:44:29;;;;;;;8.80;5.78;;;13.30;96.90;;;;;;5034960;28;20018;-76
2022/09/21 04:46:55;;;;;;;8.07;5.90;;;13.30;96.90;;;;;;5034951;28;20453;-76
2022/09/21 04:49:22;;;;;;;10.27;4.93;;;13.20;96.90;;;;;;5035076;28;20136;-79
2022/09/21 04:51:48;;;;;;;10.60;5.70;;;13.30;96.90;;;;;;5035296;28;20105;-78
2022/09/21 04:54:14;;;;;;;7.75;5.85;;;13.30;96.90;;;;;;5034489;28;20037;-79
2022/09/21 04:56:40;;;;;;;10.32;6.25;;;13.30;97.00;;;;;;5034735;28;20385;-82
2022/09/21 04:59:05;;;;;;;7.43;5.80;;;13.20;96.90;;;;;;5034582;28;20100;-82
2022/09/21 05:01:31;;;;;;;9.40;7.25;;;13.20;96.90;;;;;;5028927;28;20445;-80
2022/09/21 05:04:01;;;;;;;14.90;13.50;;;13.20;96.90;;;;;;5029652;28;20030;-82
2022/09/21 05:06:31;;;;;;;20.80;18.38;;;13.20;96.90;;;;;;5013386;28;20049;-80
2022/09/21 05:11:42;;;;;;;19.90;17.92;;;13.50;95.10;;;;;;5015846;28;20186;-84
2022/09/21 05:14:08;;;;;;;18.05;16.42;;;13.90;94.10;;;;;;5030519;28;20464;-84
2022/09/21 05:16:35;;;;;;;12.95;11.57;;;14.10;93.80;;;;;;5015275;28;20026;-82
2022/09/21 05:19:00;;;;;;;9.00;8.10;;;14.20;93.50;;;;;;5011591;28;20507;-82
2022/09/21 05:21:27;;;;;;;11.05;7.00;;;14.30;93.20;;;;;;5009871;28;20109;-80
2022/09/21 05:23:53;;;;;;;8.25;6.03;;;14.30;93.20;;;;;;5011373;28;20105;-76
2022/09/21 05:26:19;;;;;;;7.20;5.72;;;14.40;93.10;;;;;;5013425;28;20047;-76
2022/09/21 05:28:45;;;;;;;10.60;5.88;;;14.30;93.10;;;;;;5011286;28;20068;-77
2022/09/21 05:31:16;;;;;;;8.80;5.72;;;14.30;93.10;;;;;;5012226;28;20038;-76
2022/09/21 05:34:04;;;;;;;7.75;5.72;;;14.30;93.10;;;;;;5007700;28;20119;-84
2022/09/21 05:36:42;;;;;;;10.40;6.80;;;14.30;93.20;;;;;;5026345;28;20036;-79
2022/09/21 05:39:08;;;;;;;10.15;6.15;;;14.30;93.20;;;;;;5014507;28;20028;-75
2022/09/21 05:41:34;;;;;;;10.00;7.05;;;14.30;93.30;;;;;;5014039;28;20014;-82
2022/09/21 05:44:00;;;;;;;13.85;7.28;;;14.40;93.30;;;;;;5012800;28;20493;-77
2022/09/21 05:46:47;;;;;;;13.95;7.47;;;14.40;93.30;;;;;;5016456;28;20486;-74
2022/09/21 05:49:35;;;;;;;8.82;7.10;;;14.60;93.80;;;;;;5008771;28;20064;-75
2022/09/21 05:52:15;;;;;;;11.88;7.72;;;14.70;94.00;;;;;;5013252;28;20026;-78
2022/09/21 05:55:17;;;;;;;10.27;7.53;;;14.80;94.00;;;;;;5013667;28;20117;-75
2022/09/21 05:58:00;;;;;;;10.65;7.82;;;14.90;93.90;;;;;;5016345;28;20088;-75
2022/09/21 06:00:30;;;;;;;10.82;6.97;;;14.90;93.70;;;;;;5023253;28;20091;-76
2022/09/21 06:03:17;;;;;;;13.93;8.50;;;14.90;93.70;;;;;;5024673;28;20026;-81
2022/09/21 06:05:43;;;;;;;16.70;8.52;;;15.00;93.90;;;;;;5020960;28;20033;-74
2022/09/21 06:08:09;;;;;;;15.30;7.47;;;15.00;93.30;;;;;;5010328;28;20376;-79
2022/09/21 06:10:35;;;;;;;12.90;8.10;;;14.90;93.50;;;;;;5014900;28;20083;-76
2022/09/21 06:13:00;;;;;;;12.40;6.80;;;15.00;93.60;;;;;;5011478;28;20038;-75
2022/09/21 06:15:26;;;;;;;8.85;6.88;;;15.10;93.50;;;;;;5032757;28;20056;-76
2022/09/21 06:17:52;;;;;;;8.75;7.85;;;15.10;93.40;;;;;;5016495;28;20026;-75
2022/09/21 06:20:17;;;;;;;19.45;7.45;;;15.10;93.20;;;;;;5013814;28;20030;-77
2022/09/21 06:22:43;;;;;;;10.45;7.68;;;15.10;93.40;;;;;;5011916;28;20049;-78
2022/09/21 06:25:09;;;;;;;13.18;7.22;;;15.00;93.60;;;;;;5030121;28;20451;-78
2022/09/21 06:27:34;;;;;;;10.95;8.02;;;15.00;93.70;;;;;;5024702;28;20033;-78
2022/09/21 06:30:00;;;;;;;13.52;8.27;;;15.00;93.80;;;;;;5022910;28;20483;-79
2022/09/21 06:32:25;;;;;;;9.90;7.57;;;14.90;93.80;;;;;;5025909;28;20514;-79
2022/09/21 06:34:51;;;;;;;14.18;7.38;;;14.90;93.80;;;;;;5026709;28;20504;-79
2022/09/21 06:37:17;;;;;;;12.07;8.38;;;14.80;94.00;;;;;;5031536;28;20057;-80
2022/09/21 06:39:42;;;;;;;13.60;8.32;;;14.90;94.10;;;;;;5017026;28;20072;-79
2022/09/21 06:42:08;;;;;;;12.57;7.78;;;14.90;94.10;;;;;;5023669;28;20089;-78
2022/09/21 06:44:33;;;;;;;8.98;7.75;;;14.90;94.20;;;;;;5022624;28;20025;-79
2022/09/21 06:46:59;;;;;;;12.90;8.88;;;14.90;94.20;;;;;;5028455;28;20364;-79
2022/09/21 06:49:27;;;;;;;10.30;7.95;;;15.00;94.30;;;;;;5032632;28;20517;-79
2022/09/21 06:51:53;;;;;;;15.15;9.18;;;15.00;94.40;;;;;;5032312;28;20025;-77
2022/09/21 06:54:19;;;;;;;11.15;7.68;;;15.00;94.70;;;;;;5025033;28;20042;-77
2022/09/21 06:56:45;;;;;;;12.13;9.60;;;15.00;94.70;;;;;;5012594;28;20025;-80
2022/09/21 06:59:10;;;;;;;8.77;6.65;;;15.10;94.80;;;;;;5012973;28;20034;-80
2022/09/21 07:01:36;;;;;;;12.60;7.32;;;15.00;94.80;;;;;;5013091;28;20360;-80
2022/09/21 07:04:02;;;;;;;12.50;7.95;;;15.00;95.00;;;;;;5013015;28;20048;-78
2022/09/21 07:06:28;;;;;;;12.23;7.53;;;14.90;95.10;;;;;;5019116;28;20025;-78
2022/09/21 07:08:54;;;;;;;10.55;7.40;;;14.90;95.20;;;;;;5013264;28;20022;-78
2022/09/21 07:11:22;;;;;;;12.27;6.97;;;14.90;95.20;;;;;;5012539;28;20037;-78
2022/09/21 07:13:49;;;;;;;12.05;6.10;;;15.00;95.20;;;;;;5016564;28;20034;-80
2022/09/21 07:16:15;;;;;;;10.63;6.72;;;15.10;95.20;;;;;;5015291;28;20028;-78
2022/09/21 07:18:41;;;;;;;10.30;6.80;;;15.10;95.20;;;;;;5018090;28;20061;-78
2022/09/21 07:21:09;;;;;;;13.02;6.70;;;15.20;95.20;;;;;;5021826;28;20030;-79
2022/09/21 07:23:35;;;;;;;10.85;5.95;;;15.20;94.90;;;;;;5027994;28;20525;-79
2022/09/21 07:26:03;;;;;;;9.52;6.38;;;15.30;94.80;;;;;;5028334;28;20026;-78
2022/09/21 07:28:30;;;;;;;11.55;6.25;;;15.40;94.80;;;;;;5020998;28;20034;-81
2022/09/21 07:30:56;;;;;;;7.75;6.43;;;15.40;94.30;;;;;;5034231;28;20025;-78
2022/09/21 07:33:22;;;;;;;9.45;5.45;;;15.40;94.30;;;;;;5041216;28;20038;-80
2022/09/21 07:35:52;;;;;;;12.57;6.00;;;15.50;94.10;;;;;;5031744;28;20025;-81
2022/09/21 07:38:18;;;;;;;10.50;6.13;;;15.50;94.00;;;;;;5022114;28;20088;-82
2022/09/21 07:40:44;;;;;;;13.77;6.97;;;15.50;94.10;;;;;;5015299;28;20459;-82
2022/09/21 07:43:09;;;;;;;10.07;6.22;;;15.60;94.20;;;;;;5028935;28;20033;-80
2022/09/21 07:45:35;;;;;;;12.82;7.22;;;15.70;94.30;;;;;;5038679;28;20033;-80
2022/09/21 07:48:05;;;;;;;14.35;7.13;;;15.80;94.20;;;;;;5036426;28;20071;-81
2022/09/21 07:50:32;;;;;;;10.32;6.75;;;15.70;94.20;;;;;;5031811;28;20084;-79
2022/09/21 07:52:59;;;;;;;11.45;6.95;;;15.80;94.30;;;;;;5022232;28;20460;-80
2022/09/21 07:55:25;;;;;;;10.95;6.63;;;15.90;94.30;;;;;;5028525;28;20494;-79
2022/09/21 08:00:36;;;;;;;7.55;5.63;;;15.90;94.40;;;;;;5035895;28;20037;-79
2022/09/21 08:03:02;;;;;;;10.27;5.43;;;16.00;94.40;;;;;;5036077;28;20136;-80
2022/09/21 08:05:27;;;;;;;9.15;5.63;;;15.90;94.40;;;;;;5033376;28;20065;-80
2022/09/21 08:07:56;;;;;;;9.82;5.85;;;15.90;94.60;;;;;;5034555;28;20056;-80
2022/09/21 08:10:23;;;;;;;10.07;6.25;;;15.90;94.70;;;;;;5034584;28;20115;-78
2022/09/21 08:12:49;;;;;;;16.08;6.82;;;16.00;94.60;;;;;;5035578;28;20031;-80
2022/09/21 08:15:16;;;;;;;10.85;6.50;;;16.00;94.20;;;;;;5036058;28;20017;-80
2022/09/21 08:17:42;;;;;;;10.02;6.18;;;16.10;94.20;;;;;;5035585;28;20026;-79
2022/09/21 08:20:08;;;;;;;9.95;6.35;;;16.10;94.30;;;;;;5030389;28;20041;-79
2022/09/21 08:22:33;;;;;;;12.90;6.18;;;16.10;94.30;;;;;;5019968;28;20026;-79
2022/09/21 08:24:59;;;;;;;10.65;6.70;;;16.20;94.30;;;;;;5029892;28;20433;-78
2022/09/21 08:27:24;;;;;;;9.85;6.47;;;16.20;94.20;;;;;;5033393;28;20501;-78
2022/09/21 08:29:50;;;;;;;9.90;5.78;;;16.20;94.20;;;;;;5034463;28;20359;-80
2022/09/21 08:32:16;;;;;;;8.93;6.03;;;16.20;94.30;;;;;;5034777;28;20497;-80
2022/09/21 08:34:42;;;;;;;12.10;5.70;;;16.20;94.40;;;;;;5027802;28;20034;-78
2022/09/21 08:37:08;;;;;;;15.30;6.95;;;16.20;94.30;;;;;;5015173;28;20032;-80
2022/09/21 08:39:33;;;;;;;8.32;6.20;;;16.20;94.30;;;;;;5015204;28;20068;-79
2022/09/21 08:42:37;;;;;;;8.52;5.03;;;16.30;94.10;;;;;;5020708;28;20057;-79
2022/09/21 08:45:10;;;;;;;9.13;5.70;;;16.30;94.00;;;;;;5012542;28;20042;-79
2022/09/21 08:47:42;;;;;;;16.13;6.88;;;16.20;94.30;;;;;;5014978;28;20021;-81
2022/09/21 08:50:38;;;;;;;10.57;6.18;;;16.20;94.20;;;;;;5014907;28;20034;-81
2022/09/21 08:53:15;;;;;;;9.80;6.35;;;16.30;94.10;;;;;;5029205;28;20052;-81
2022/09/21 08:55:40;;;;;;;9.02;5.65;;;16.20;93.90;;;;;;5034667;28;20463;-80
2022/09/21 08:58:30;;;;;;;10.73;4.93;;;16.30;93.70;;;;;;5034966;28;20034;-80
2022/09/21 09:01:17;;;;;;;8.20;4.00;;;16.30;93.90;;;;;;5020134;28;20070;-79
2022/09/21 09:04:23;;;;;;;10.13;3.95;;;16.30;93.70;;;;;;5034450;28;20041;-78
2022/09/21 09:06:59;;;;;;;7.25;3.67;;;16.30;93.20;;;;;;5034404;28;20061;-79
2022/09/21 09:10:00;;;;;;;6.35;3.50;;;16.30;93.00;;;;;;5020454;28;20109;-80
2022/09/21 09:13:03;;;;;;;8.52;3.00;;;16.40;93.10;;;;;;5014652;28;20032;-79
2022/09/21 09:15:42;;;;;;;8.65;3.10;;;16.40;92.60;;;;;;5033772;28;20053;-77
2022/09/21 09:18:22;;;;;;;7.03;2.78;;;16.40;92.50;;;;;;5023566;28;20112;-80
2022/09/21 09:21:19;;;;;;;6.72;2.78;;;16.40;92.90;;;;;;5024517;28;20021;-77
2022/09/21 09:23:52;;;;;;;4.32;2.53;;;16.40;92.90;;;;;;5016592;28;20394;-77
2022/09/21 09:26:26;;;;;;;9.23;3.08;;;16.50;92.70;;;;;;5034318;28;20025;-76
2022/09/21 09:29:01;;;;;;;4.53;2.20;;;16.50;92.90;;;;;;5032679;28;20026;-77
2022/09/21 09:31:37;;;;;;;5.82;2.65;;;16.50;92.80;;;;;;5028496;28;20112;-76
2022/09/21 09:34:27;;;;;;;6.47;1.58;;;16.50;92.30;;;;;;5014223;28;20046;-78
2022/09/21 09:37:13;;;;;;;6.15;1.85;;;16.50;92.00;;;;;;5014027;28;20029;-77
2022/09/21 09:39:41;;;;;;;4.65;1.80;;;16.50;92.30;;;;;;5030621;28;20025;-80
2022/09/21 09:42:23;;;;;;;9.13;2.28;;;16.50;92.70;;;;;;5019885;28;20456;-81
2022/09/21 09:45:20;;;;;;;7.88;2.65;;;16.50;92.80;;;;;;5012315;28;20101;-75
2022/09/21 09:48:10;;;;;;;6.43;2.53;;;16.60;92.50;;;;;;5021528;28;20033;-75
2022/09/21 09:50:40;;;;;;;4.95;1.90;;;16.60;92.20;;;;;;5013389;28;20041;-75
2022/09/21 09:53:23;;;;;;;5.45;1.67;;;16.60;91.60;;;;;;5013470;28;20400;-75
2022/09/21 09:55:51;;;;;;;4.38;1.42;;;16.60;91.30;;;;;;5014019;28;20501;-75
2022/09/21 09:58:23;;;;;;;9.52;1.75;;;16.60;91.00;;;;;;5014178;28;20034;-75
2022/09/21 10:00:52;;;;;;;4.55;1.30;;;16.70;91.20;;;;;;5014386;28;20068;-75
2022/09/21 10:03:21;;;;;;;4.22;1.52;;;16.70;91.20;;;;;;5017304;28;20515;-75
2022/09/21 10:05:47;;;;;;;5.38;1.80;;;16.70;90.80;;;;;;5033536;28;20061;-75
2022/09/21 10:08:43;;;;;;;6.45;1.65;;;16.70;91.00;;;;;;5033312;28;20025;-75
2022/09/21 10:11:11;;;;;;;7.18;1.60;;;16.70;91.20;;;;;;5033599;28;20018;-75
2022/09/21 10:13:47;;;;;;;5.43;2.03;;;16.70;91.50;;;;;;5016337;28;20034;-75
2022/09/21 10:16:14;;;;;;;7.50;2.15;;;16.70;91.40;;;;;;5013870;28;20047;-75
2022/09/21 10:18:46;;;;;;;4.72;1.38;;;16.80;91.40;;;;;;5014598;28;20100;-75
2022/09/21 10:21:17;;;;;;;5.95;1.38;;;16.80;91.90;;;;;;5018934;28;20422;-75
2022/09/21 10:23:50;;;;;;;5.95;2.47;;;16.80;92.20;;;;;;5012707;28;20084;-75
2022/09/21 10:26:17;;;;;;;7.18;1.92;;;16.80;92.00;;;;;;5014396;28;20032;-75
2022/09/21 10:29:00;;;;;;;6.38;1.77;;;16.80;91.80;;;;;;5012218;28;20028;-75
2022/09/21 10:31:28;;;;;;;7.60;2.80;;;16.90;91.50;;;;;;5019936;28;20490;-75
2022/09/21 10:34:05;;;;;;;5.53;2.17;;;16.90;91.40;;;;;;5019529;28;20037;-75
2022/09/21 10:36:37;;;;;;;9.60;2.28;;;16.90;91.70;;;;;;5014294;28;20034;-75
2022/09/21 10:39:16;;;;;;;;;;;16.90;91.20;;;;;;5023744;28;20025;-73
2022/09/21 10:41:48;;;;;;;3.83;1.38;;;17.00;91.00;;;;;;5025234;28;19911;-74
2022/09/21 10:44:18;;;;;;;8.77;1.35;;;17.00;90.80;;;;;;5020156;28;20025;-75
2022/09/21 10:46:46;;;;;;;6.10;1.70;;;17.00;91.80;;;;;;5026268;28;20368;-74
2022/09/21 10:49:24;;;;;;;4.25;1.60;;;17.00;91.30;;;;;;5024021;28;20037;-74
2022/09/21 10:51:52;;;;;;;5.47;2.03;;;17.00;90.80;;;;;;5028599;28;20022;-74
2022/09/21 10:54:23;;;;;;;4.68;1.90;;;17.00;89.70;;;;;;5023298;28;20088;-74
2022/09/21 10:56:55;;;;;;;7.70;1.60;;;17.10;88.00;;;;;;5021052;28;20108;-75
2022/09/21 10:59:23;;;;;;;;;;;17.00;86.30;;;;;;5020261;28;20064;-73
2022/09/21 11:01:52;;;;;;;5.55;1.70;;;17.10;90.50;;;;;;5020537;28;19964;-74
2022/09/21 11:04:23;;;;;;;4.97;1.60;;;17.20;90.40;;;;;;5025120;28;20478;-74
2022/09/21 11:07:20;;;;;;;7.70;2.17;;;17.20;90.70;;;;;;5029264;28;20033;-74
2022/09/21 11:10:13;;;;;;;9.15;2.05;;;17.10;90.20;;;;;;5023591;28;20034;-74
2022/09/21 11:12:42;;;;;;;10.65;2.47;;;17.20;90.70;;;;;;5016186;28;20554;-73
2022/09/21 11:15:08;;;;;;;8.35;2.33;;;17.20;90.80;;;;;;5015000;28;20026;-74
2022/09/21 11:17:59;;;;;;;9.85;2.63;;;17.20;90.70;;;;;;5025016;28;20029;-74
2022/09/21 11:20:57;;;;;;;5.07;2.35;;;17.20;90.00;;;;;;5029939;28;20022;-74
2022/09/21 11:23:28;;;;;;;8.35;2.55;;;17.20;90.00;;;;;;5027482;28;20352;-75
2022/09/21 11:26:03;;;;;;;10.70;2.85;;;17.30;90.50;;;;;;5014468;28;20030;-74
2022/09/21 11:28:41;;;;;;;7.05;1.80;;;17.20;90.10;;;;;;5012319;28;20057;-74
2022/09/21 11:31:35;;;;;;;6.50;2.28;;;17.30;90.50;;;;;;5019454;28;20117;-73
2022/09/21 11:34:24;;;;;;;8.60;1.80;;;17.30;90.40;;;;;;5017436;28;20049;-74
2022/09/21 11:36:59;;;;;;;7.05;1.92;;;17.30;89.10;;;;;;5011644;28;20026;-75
2022/09/21 11:39:45;;;;;;;7.05;1.45;;;17.30;89.20;;;;;;5010764;28;20018;-75
2022/09/21 11:42:23;;;;;;;4.88;1.90;;;17.30;90.50;;;;;;5009452;28;20028;-74
2022/09/21 11:44:55;;;;;;;8.52;1.73;;;17.40;89.70;;;;;;5019480;28;20052;-74
2022/09/21 11:47:42;;;;;;;7.25;1.60;;;17.40;88.30;;;;;;5025041;28;20032;-74
2022/09/21 11:50:19;;;;;;;5.55;1.65;;;17.40;87.20;;;;;;5013965;28;20671;-73
2022/09/21 11:53:11;;;;;;;3.63;1.20;;;17.40;87.80;;;;;;5018815;28;20168;-74
2022/09/21 11:56:05;;;;;;;5.47;1.48;;;17.40;86.80;;;;;;5016463;28;20030;-74
2022/09/21 11:59:05;;;;;;;5.22;1.50;;;17.40;88.30;;;;;;5024901;28;20061;-75
2022/09/21 12:01:47;;;;;;;7.90;1.40;;;17.40;86.50;;;;;;5027709;28;20487;-74
2022/09/21 12:04:56;;;;;;;7.32;1.75;;;17.50;87.00;;;;;;5026769;28;20045;-74
2022/09/21 12:07:31;;;;;;;3.45;1.00;;;17.50;87.40;;;;;;5021918;28;20471;-75
2022/09/21 12:10:12;;;;;;;7.28;1.50;;;17.50;88.20;;;;;;5031935;28;20060;-75
2022/09/21 12:12:53;;;;;;;6.35;1.52;;;17.50;88.60;;;;;;5015932;28;20057;-75
2022/09/21 12:15:28;;;;;;;5.40;1.30;;;17.50;87.50;;;;;;5014954;28;20100;-76
2022/09/21 12:18:19;;;;;;;3.33;1.20;;;17.50;84.90;;;;;;5031695;28;20100;-74
2022/09/21 12:20:55;;;;;;;6.13;1.00;;;17.60;89.40;;;;;;5020569;28;20474;-74
2022/09/21 12:23:56;;;;;;;5.85;1.73;;;17.60;90.00;;;;;;5025379;28;20034;-74
2022/09/21 12:26:40;;;;;;;3.85;0.82;;;17.60;90.50;;;;;;5027467;28;20026;-74
2022/09/21 12:29:46;;;;;;;2.38;0.73;;;17.70;85.10;;;;;;5016944;28;20106;-74
2022/09/21 12:32:24;;;;;;;3.55;1.05;;;17.70;83.00;;;;;;5020119;28;20517;-75
2022/09/21 12:34:55;;;;;;;5.55;0.98;;;17.60;81.70;;;;;;5013332;28;20080;-75
2022/09/21 12:37:30;;;;;;;4.10;0.77;;;17.70;82.70;;;;;;5022891;28;20026;-76
2022/09/21 12:40:14;;;;;;;5.00;1.10;;;17.70;82.80;;;;;;5034628;28;20103;-76
2022/09/21 12:42:45;;;;;;;4.10;0.80;;;17.70;82.00;;;;;;5029896;28;20026;-73
2022/09/21 12:45:36;;;;;;;2.43;0.87;;;17.70;81.50;;;;;;5015691;28;20356;-74
2022/09/21 12:48:28;;;;;;;8.10;1.30;;;17.70;82.30;;;;;;5027575;28;20095;-73
2022/09/21 12:51:23;;;;;;;13.50;2.20;;;17.80;82.80;;;;;;5022384;28;20049;-74
2022/09/21 12:53:52;;;;;;;13.32;3.63;;;17.80;81.70;;;;;;5024117;28;20033;-73
2022/09/21 12:56:42;;;;;;;3.42;0.60;;;17.80;82.50;;;;;;5030881;28;20463;-74
2022/09/21 13:00:04;;;;;;;6.60;1.58;;;17.90;80.50;;;;;;5036090;28;20024;-72
2022/09/21 13:02:34;;;;;;;6.13;0.73;;;17.90;81.10;;;;;;5010140;28;20108;-72
2022/09/21 13:05:21;;;;;;;4.60;0.60;;;17.90;80.60;;;;;;5015778;28;20120;-71
2022/09/21 13:07:55;;;;;;;6.57;1.10;;;17.90;82.50;;;;;;5020308;28;20033;-71
2022/09/21 13:10:27;;;;;;;6.35;1.73;;;18.00;82.70;;;;;;5022434;28;20037;-74
2022/09/21 13:13:02;;;;;;;6.40;0.80;;;17.90;81.40;;;;;;5016939;28;20410;-72
2022/09/21 13:15:32;;;;;;;3.17;0.80;;;18.00;81.00;;;;;;5017253;28;20029;-72
2022/09/21 13:18:22;;;;;;;4.68;1.15;;;18.00;84.10;;;;;;5032024;28;20096;-70
2022/09/21 13:20:50;;;;;;;5.68;0.82;;;18.00;81.10;;;;;;5019750;28;20029;-71